sensor_id;sensor_type;location;lat;lon;timestamp;temperature;humidity
18575;DHT22;9417;16.484;102.872;2022-10-26T00:01:08;24.60;94.20
18575;DHT22;9417;16.484;102.872;2022-10-26T00:03:15;24.70;94.10
18575;DHT22;9417;16.484;102.872;2022-10-26T00:05:22;24.70;93.90
18575;DHT22;9417;16.484;102.872;2022-10-26T00:07:29;24.80;93.50
18575;DHT22;9417;16.484;102.872;2022-10-26T00:09:36;24.80;93.40
18575;DHT22;9417;16.484;102.872;2022-10-26T00:11:43;24.80;93.00
18575;DHT22;9417;16.484;102.872;2022-10-26T00:13:49;24.90;92.80
18575;DHT22;9417;16.484;102.872;2022-10-26T00:15:56;25.00;92.50
18575;DHT22;9417;16.484;102.872;2022-10-26T00:18:09;25.00;92.30
18575;DHT22;9417;16.484;102.872;2022-10-26T00:20:15;25.00;92.10
18575;DHT22;9417;16.484;102.872;2022-10-26T00:22:22;25.10;92.20
18575;DHT22;9417;16.484;102.872;2022-10-26T00:24:28;25.10;92.20
18575;DHT22;9417;16.484;102.872;2022-10-26T00:26:35;25.20;91.80
18575;DHT22;9417;16.484;102.872;2022-10-26T00:28:41;25.30;91.80
18575;DHT22;9417;16.484;102.872;2022-10-26T00:30:48;25.30;91.60
18575;DHT22;9417;16.484;102.872;2022-10-26T00:32:54;25.40;92.10
18575;DHT22;9417;16.484;102.872;2022-10-26T00:35:03;25.40;91.30
18575;DHT22;9417;16.484;102.872;2022-10-26T00:37:26;25.50;89.90
18575;DHT22;9417;16.484;102.872;2022-10-26T00:39:33;25.60;90.10
18575;DHT22;9417;16.484;102.872;2022-10-26T00:41:40;25.60;88.30
18575;DHT22;9417;16.484;102.872;2022-10-26T00:43:46;25.70;88.00
18575;DHT22;9417;16.484;102.872;2022-10-26T00:45:54;25.80;87.40
18575;DHT22;9417;16.484;102.872;2022-10-26T00:48:04;25.80;87.00
18575;DHT22;9417;16.484;102.872;2022-10-26T00:50:18;25.90;87.80
18575;DHT22;9417;16.484;102.872;2022-10-26T00:52:27;25.90;87.00
18575;DHT22;9417;16.484;102.872;2022-10-26T00:54:34;26.00;87.10
18575;DHT22;9417;16.484;102.872;2022-10-26T00:56:41;26.10;86.70
18575;DHT22;9417;16.484;102.872;2022-10-26T00:58:48;26.10;86.10
18575;DHT22;9417;16.484;102.872;2022-10-26T01:00:55;26.20;85.50
18575;DHT22;9417;16.484;102.872;2022-10-26T01:03:04;26.20;85.90
18575;DHT22;9417;16.484;102.872;2022-10-26T01:05:13;26.30;86.00
18575;DHT22;9417;16.484;102.872;2022-10-26T01:07:21;26.40;85.40
18575;DHT22;9417;16.484;102.872;2022-10-26T01:09:28;26.40;84.60
18575;DHT22;9417;16.484;102.872;2022-10-26T01:11:34;26.50;83.10
18575;DHT22;9417;16.484;102.872;2022-10-26T01:13:42;26.50;84.60
18575;DHT22;9417;16.484;102.872;2022-10-26T01:15:55;26.60;83.00
18575;DHT22;9417;16.484;102.872;2022-10-26T01:18:09;26.60;81.40
18575;DHT22;9417;16.484;102.872;2022-10-26T01:20:48;26.70;81.30
18575;DHT22;9417;16.484;102.872;2022-10-26T01:23:05;26.70;79.80
18575;DHT22;9417;16.484;102.872;2022-10-26T01:25:22;26.80;81.00
18575;DHT22;9417;16.484;102.872;2022-10-26T01:27:34;26.80;80.80
18575;DHT22;9417;16.484;102.872;2022-10-26T01:32:11;27.00;79.80
18575;DHT22;9417;16.484;102.872;2022-10-26T01:34:22;27.00;80.60
18575;DHT22;9417;16.484;102.872;2022-10-26T01:36:33;27.10;80.50
18575;DHT22;9417;16.484;102.872;2022-10-26T01:38:51;27.10;79.80
18575;DHT22;9417;16.484;102.872;2022-10-26T01:41:04;27.20;79.50
18575;DHT22;9417;16.484;102.872;2022-10-26T01:43:13;27.20;78.60
18575;DHT22;9417;16.484;102.872;2022-10-26T01:45:21;27.20;78.60
18575;DHT22;9417;16.484;102.872;2022-10-26T01:47:30;27.20;78.60
18575;DHT22;9417;16.484;102.872;2022-10-26T01:49:41;27.20;80.00
18575;DHT22;9417;16.484;102.872;2022-10-26T01:51:49;27.30;78.60
18575;DHT22;9417;16.484;102.872;2022-10-26T01:53:57;27.30;79.90
18575;DHT22;9417;16.484;102.872;2022-10-26T01:56:04;27.30;78.90
18575;DHT22;9417;16.484;102.872;2022-10-26T01:58:37;27.40;79.00
18575;DHT22;9417;16.484;102.872;2022-10-26T02:00:55;27.40;78.80
18575;DHT22;9417;16.484;102.872;2022-10-26T02:03:13;27.40;78.70
18575;DHT22;9417;16.484;102.872;2022-10-26T02:07:57;27.50;79.70
18575;DHT22;9417;16.484;102.872;2022-10-26T02:10:17;27.60;78.40
18575;DHT22;9417;16.484;102.872;2022-10-26T02:12:32;27.60;79.40
18575;DHT22;9417;16.484;102.872;2022-10-26T02:14:48;27.60;78.70
18575;DHT22;9417;16.484;102.872;2022-10-26T02:16:56;27.70;78.60
18575;DHT22;9417;16.484;102.872;2022-10-26T02:19:12;27.70;78.40
18575;DHT22;9417;16.484;102.872;2022-10-26T02:21:26;27.80;78.70
18575;DHT22;9417;16.484;102.872;2022-10-26T02:23:36;27.80;77.10
18575;DHT22;9417;16.484;102.872;2022-10-26T02:25:47;27.90;77.70
18575;DHT22;9417;16.484;102.872;2022-10-26T02:27:58;27.90;77.60
18575;DHT22;9417;16.484;102.872;2022-10-26T02:30:08;28.00;77.40
18575;DHT22;9417;16.484;102.872;2022-10-26T02:32:15;28.00;77.60
18575;DHT22;9417;16.484;102.872;2022-10-26T02:34:26;28.10;77.40
18575;DHT22;9417;16.484;102.872;2022-10-26T02:36:35;28.20;78.20
18575;DHT22;9417;16.484;102.872;2022-10-26T02:38:44;28.30;76.80
18575;DHT22;9417;16.484;102.872;2022-10-26T02:40:54;28.40;74.90
18575;DHT22;9417;16.484;102.872;2022-10-26T02:43:04;28.50;73.90
18575;DHT22;9417;16.484;102.872;2022-10-26T02:45:14;28.60;74.80
18575;DHT22;9417;16.484;102.872;2022-10-26T02:47:22;28.70;74.10
18575;DHT22;9417;16.484;102.872;2022-10-26T02:49:31;28.70;74.30
18575;DHT22;9417;16.484;102.872;2022-10-26T02:51:42;28.80;74.20
18575;DHT22;9417;16.484;102.872;2022-10-26T02:53:53;28.90;73.70
18575;DHT22;9417;16.484;102.872;2022-10-26T02:56:06;29.00;73.80
18575;DHT22;9417;16.484;102.872;2022-10-26T02:58:18;29.00;73.10
18575;DHT22;9417;16.484;102.872;2022-10-26T03:00:29;29.00;72.70
18575;DHT22;9417;16.484;102.872;2022-10-26T03:02:36;29.10;72.70
18575;DHT22;9417;16.484;102.872;2022-10-26T03:04:50;29.10;73.10
18575;DHT22;9417;16.484;102.872;2022-10-26T03:06:56;29.20;73.00
18575;DHT22;9417;16.484;102.872;2022-10-26T03:09:03;29.30;73.70
18575;DHT22;9417;16.484;102.872;2022-10-26T03:11:10;29.40;73.20
18575;DHT22;9417;16.484;102.872;2022-10-26T03:13:16;29.50;72.60
18575;DHT22;9417;16.484;102.872;2022-10-26T03:15:23;29.60;71.80
18575;DHT22;9417;16.484;102.872;2022-10-26T03:17:30;29.70;71.10
18575;DHT22;9417;16.484;102.872;2022-10-26T03:19:36;29.70;71.30
18575;DHT22;9417;16.484;102.872;2022-10-26T03:21:44;29.70;71.20
18575;DHT22;9417;16.484;102.872;2022-10-26T03:23:51;29.70;71.10
18575;DHT22;9417;16.484;102.872;2022-10-26T03:25:58;29.70;70.10
18575;DHT22;9417;16.484;102.872;2022-10-26T03:28:06;29.60;70.70
18575;DHT22;9417;16.484;102.872;2022-10-26T03:30:13;29.60;71.60
18575;DHT22;9417;16.484;102.872;2022-10-26T03:32:20;29.60;71.70
18575;DHT22;9417;16.484;102.872;2022-10-26T03:34:26;29.70;71.00
18575;DHT22;9417;16.484;102.872;2022-10-26T03:36:33;29.80;70.10
18575;DHT22;9417;16.484;102.872;2022-10-26T03:38:41;29.70;70.30
18575;DHT22;9417;16.484;102.872;2022-10-26T03:40:47;29.80;70.50
18575;DHT22;9417;16.484;102.872;2022-10-26T03:42:54;29.80;69.90
18575;DHT22;9417;16.484;102.872;2022-10-26T03:45:00;29.90;69.90
18575;DHT22;9417;16.484;102.872;2022-10-26T03:47:07;30.00;69.80
18575;DHT22;9417;16.484;102.872;2022-10-26T03:49:14;30.20;69.70
18575;DHT22;9417;16.484;102.872;2022-10-26T03:51:20;30.30;69.00
18575;DHT22;9417;16.484;102.872;2022-10-26T03:53:27;30.40;68.10
18575;DHT22;9417;16.484;102.872;2022-10-26T03:55:35;30.50;68.00
18575;DHT22;9417;16.484;102.872;2022-10-26T03:57:42;30.60;67.30
18575;DHT22;9417;16.484;102.872;2022-10-26T03:59:48;30.60;67.40
18575;DHT22;9417;16.484;102.872;2022-10-26T04:01:55;30.70;67.00
18575;DHT22;9417;16.484;102.872;2022-10-26T04:04:02;30.80;67.20
18575;DHT22;9417;16.484;102.872;2022-10-26T04:06:08;30.80;67.10
18575;DHT22;9417;16.484;102.872;2022-10-26T04:08:15;31.00;66.50
18575;DHT22;9417;16.484;102.872;2022-10-26T04:10:22;31.00;65.70
18575;DHT22;9417;16.484;102.872;2022-10-26T04:12:30;31.00;65.60
18575;DHT22;9417;16.484;102.872;2022-10-26T04:14:37;31.10;66.00
18575;DHT22;9417;16.484;102.872;2022-10-26T04:16:43;31.20;66.00
18575;DHT22;9417;16.484;102.872;2022-10-26T04:18:50;31.20;65.90
18575;DHT22;9417;16.484;102.872;2022-10-26T04:21:00;31.10;65.90
18575;DHT22;9417;16.484;102.872;2022-10-26T04:23:09;30.90;66.40
18575;DHT22;9417;16.484;102.872;2022-10-26T04:25:16;31.00;66.70
18575;DHT22;9417;16.484;102.872;2022-10-26T04:27:24;31.00;66.70
18575;DHT22;9417;16.484;102.872;2022-10-26T04:29:32;31.00;66.40
18575;DHT22;9417;16.484;102.872;2022-10-26T04:31:38;31.10;66.60
18575;DHT22;9417;16.484;102.872;2022-10-26T04:33:46;31.10;65.80
18575;DHT22;9417;16.484;102.872;2022-10-26T04:35:57;31.00;65.90
18575;DHT22;9417;16.484;102.872;2022-10-26T04:38:05;31.00;66.10
18575;DHT22;9417;16.484;102.872;2022-10-26T04:40:12;31.00;65.80
18575;DHT22;9417;16.484;102.872;2022-10-26T04:42:18;31.00;65.90
18575;DHT22;9417;16.484;102.872;2022-10-26T04:44:25;31.10;66.30
18575;DHT22;9417;16.484;102.872;2022-10-26T04:46:33;31.10;66.10
18575;DHT22;9417;16.484;102.872;2022-10-26T04:48:40;31.00;66.40
18575;DHT22;9417;16.484;102.872;2022-10-26T04:50:47;30.90;67.30
18575;DHT22;9417;16.484;102.872;2022-10-26T04:52:53;30.70;67.10
18575;DHT22;9417;16.484;102.872;2022-10-26T04:55:00;30.70;67.20
18575;DHT22;9417;16.484;102.872;2022-10-26T04:57:09;30.60;67.50
18575;DHT22;9417;16.484;102.872;2022-10-26T04:59:16;30.60;67.50
18575;DHT22;9417;16.484;102.872;2022-10-26T05:01:22;30.80;67.60
18575;DHT22;9417;16.484;102.872;2022-10-26T05:03:31;30.90;67.90
18575;DHT22;9417;16.484;102.872;2022-10-26T05:05:37;31.10;67.60
18575;DHT22;9417;16.484;102.872;2022-10-26T05:07:44;31.20;66.40
18575;DHT22;9417;16.484;102.872;2022-10-26T05:09:58;31.10;66.40
18575;DHT22;9417;16.484;102.872;2022-10-26T05:12:05;31.00;66.90
18575;DHT22;9417;16.484;102.872;2022-10-26T05:14:11;31.10;67.10
18575;DHT22;9417;16.484;102.872;2022-10-26T05:16:18;31.10;67.30
18575;DHT22;9417;16.484;102.872;2022-10-26T05:18:25;31.10;66.90
18575;DHT22;9417;16.484;102.872;2022-10-26T05:20:34;31.20;67.10
18575;DHT22;9417;16.484;102.872;2022-10-26T05:22:41;31.10;66.90
18575;DHT22;9417;16.484;102.872;2022-10-26T05:24:48;31.00;67.60
18575;DHT22;9417;16.484;102.872;2022-10-26T05:26:54;30.80;67.50
18575;DHT22;9417;16.484;102.872;2022-10-26T05:29:01;30.70;67.60
18575;DHT22;9417;16.484;102.872;2022-10-26T05:31:07;30.60;67.90
18575;DHT22;9417;16.484;102.872;2022-10-26T05:33:14;30.50;68.40
18575;DHT22;9417;16.484;102.872;2022-10-26T05:35:21;30.50;68.80
18575;DHT22;9417;16.484;102.872;2022-10-26T05:37:29;30.40;69.00
18575;DHT22;9417;16.484;102.872;2022-10-26T05:39:36;30.40;69.40
18575;DHT22;9417;16.484;102.872;2022-10-26T05:41:42;30.50;69.20
18575;DHT22;9417;16.484;102.872;2022-10-26T05:43:49;30.50;68.90
18575;DHT22;9417;16.484;102.872;2022-10-26T05:45:56;30.70;68.80
18575;DHT22;9417;16.484;102.872;2022-10-26T05:48:03;30.80;68.50
18575;DHT22;9417;16.484;102.872;2022-10-26T05:50:10;30.90;67.90
18575;DHT22;9417;16.484;102.872;2022-10-26T05:52:17;31.00;68.20
18575;DHT22;9417;16.484;102.872;2022-10-26T05:54:25;31.10;68.20
18575;DHT22;9417;16.484;102.872;2022-10-26T05:56:36;31.00;67.50
18575;DHT22;9417;16.484;102.872;2022-10-26T05:58:44;31.00;67.20
18575;DHT22;9417;16.484;102.872;2022-10-26T06:01:05;30.70;67.70
18575;DHT22;9417;16.484;102.872;2022-10-26T06:03:21;30.50;68.70
18575;DHT22;9417;16.484;102.872;2022-10-26T06:05:34;30.30;69.50
18575;DHT22;9417;16.484;102.872;2022-10-26T06:07:43;30.20;70.40
18575;DHT22;9417;16.484;102.872;2022-10-26T06:09:52;30.00;70.80
18575;DHT22;9417;16.484;102.872;2022-10-26T06:12:00;30.00;71.00
18575;DHT22;9417;16.484;102.872;2022-10-26T06:14:07;29.90;71.50
18575;DHT22;9417;16.484;102.872;2022-10-26T06:16:25;29.90;72.30
18575;DHT22;9417;16.484;102.872;2022-10-26T06:18:41;29.90;73.00
18575;DHT22;9417;16.484;102.872;2022-10-26T06:20:57;29.90;72.60
18575;DHT22;9417;16.484;102.872;2022-10-26T06:23:22;29.90;72.80
18575;DHT22;9417;16.484;102.872;2022-10-26T06:25:41;30.10;72.70
18575;DHT22;9417;16.484;102.872;2022-10-26T06:27:57;30.40;72.20
18575;DHT22;9417;16.484;102.872;2022-10-26T06:30:08;30.40;71.20
18575;DHT22;9417;16.484;102.872;2022-10-26T06:32:15;30.40;70.90
18575;DHT22;9417;16.484;102.872;2022-10-26T06:34:25;30.40;70.70
18575;DHT22;9417;16.484;102.872;2022-10-26T06:36:33;30.40;70.60
18575;DHT22;9417;16.484;102.872;2022-10-26T06:38:42;30.30;70.80
18575;DHT22;9417;16.484;102.872;2022-10-26T06:40:52;30.30;70.90
18575;DHT22;9417;16.484;102.872;2022-10-26T06:43:00;30.30;70.70
18575;DHT22;9417;16.484;102.872;2022-10-26T06:45:12;30.20;71.10
18575;DHT22;9417;16.484;102.872;2022-10-26T06:47:22;30.20;71.80
18575;DHT22;9417;16.484;102.872;2022-10-26T06:49:34;30.20;71.90
18575;DHT22;9417;16.484;102.872;2022-10-26T06:51:45;30.20;71.90
18575;DHT22;9417;16.484;102.872;2022-10-26T06:53:57;30.20;71.80
18575;DHT22;9417;16.484;102.872;2022-10-26T06:56:06;30.20;71.60
18575;DHT22;9417;16.484;102.872;2022-10-26T06:58:18;30.20;71.40
18575;DHT22;9417;16.484;102.872;2022-10-26T07:00:26;30.20;71.80
18575;DHT22;9417;16.484;102.872;2022-10-26T07:02:37;30.20;71.80
18575;DHT22;9417;16.484;102.872;2022-10-26T07:04:44;30.30;71.70
18575;DHT22;9417;16.484;102.872;2022-10-26T07:06:51;30.10;71.10
18575;DHT22;9417;16.484;102.872;2022-10-26T07:09:00;30.00;70.80
18575;DHT22;9417;16.484;102.872;2022-10-26T07:11:08;30.00;71.20
18575;DHT22;9417;16.484;102.872;2022-10-26T07:13:15;29.90;71.10
18575;DHT22;9417;16.484;102.872;2022-10-26T07:15:21;29.90;71.70
18575;DHT22;9417;16.484;102.872;2022-10-26T07:17:28;29.80;72.30
18575;DHT22;9417;16.484;102.872;2022-10-26T07:19:35;29.80;72.90
18575;DHT22;9417;16.484;102.872;2022-10-26T07:21:43;29.80;72.40
18575;DHT22;9417;16.484;102.872;2022-10-26T07:23:50;29.80;72.60
18575;DHT22;9417;16.484;102.872;2022-10-26T07:26:00;29.80;72.90
18575;DHT22;9417;16.484;102.872;2022-10-26T07:28:09;29.90;73.00
18575;DHT22;9417;16.484;102.872;2022-10-26T07:30:16;30.10;72.60
18575;DHT22;9417;16.484;102.872;2022-10-26T07:32:22;30.20;71.20
18575;DHT22;9417;16.484;102.872;2022-10-26T07:34:29;30.40;70.70
18575;DHT22;9417;16.484;102.872;2022-10-26T07:36:35;30.60;70.10
18575;DHT22;9417;16.484;102.872;2022-10-26T07:38:42;30.80;69.60
18575;DHT22;9417;16.484;102.872;2022-10-26T07:40:49;31.00;68.60
18575;DHT22;9417;16.484;102.872;2022-10-26T07:42:58;31.00;68.00
18575;DHT22;9417;16.484;102.872;2022-10-26T07:45:07;30.90;68.10
18575;DHT22;9417;16.484;102.872;2022-10-26T07:47:14;30.80;68.50
18575;DHT22;9417;16.484;102.872;2022-10-26T07:49:21;30.70;68.90
18575;DHT22;9417;16.484;102.872;2022-10-26T07:51:30;30.60;69.60
18575;DHT22;9417;16.484;102.872;2022-10-26T07:53:36;30.30;69.20
18575;DHT22;9417;16.484;102.872;2022-10-26T07:55:43;30.20;70.40
18575;DHT22;9417;16.484;102.872;2022-10-26T07:57:57;30.00;71.30
18575;DHT22;9417;16.484;102.872;2022-10-26T08:00:08;30.00;72.00
18575;DHT22;9417;16.484;102.872;2022-10-26T08:02:14;29.90;72.70
18575;DHT22;9417;16.484;102.872;2022-10-26T08:04:21;29.80;73.40
18575;DHT22;9417;16.484;102.872;2022-10-26T08:06:28;29.70;72.40
18575;DHT22;9417;16.484;102.872;2022-10-26T08:08:34;29.60;72.40
18575;DHT22;9417;16.484;102.872;2022-10-26T08:10:46;29.50;71.90
18575;DHT22;9417;16.484;102.872;2022-10-26T08:12:52;29.50;72.30
18575;DHT22;9417;16.484;102.872;2022-10-26T08:14:59;29.40;72.90
18575;DHT22;9417;16.484;102.872;2022-10-26T08:17:07;29.40;73.40
18575;DHT22;9417;16.484;102.872;2022-10-26T08:19:16;29.40;74.30
18575;DHT22;9417;16.484;102.872;2022-10-26T08:21:23;29.30;75.20
18575;DHT22;9417;16.484;102.872;2022-10-26T08:23:42;29.30;75.70
18575;DHT22;9417;16.484;102.872;2022-10-26T08:25:48;29.30;75.80
18575;DHT22;9417;16.484;102.872;2022-10-26T08:27:55;29.40;75.90
18575;DHT22;9417;16.484;102.872;2022-10-26T08:30:06;29.40;76.00
18575;DHT22;9417;16.484;102.872;2022-10-26T08:32:14;29.40;76.10
18575;DHT22;9417;16.484;102.872;2022-10-26T08:34:21;29.50;76.10
18575;DHT22;9417;16.484;102.872;2022-10-26T08:36:27;29.50;75.30
18575;DHT22;9417;16.484;102.872;2022-10-26T08:38:34;29.50;73.50
18575;DHT22;9417;16.484;102.872;2022-10-26T08:40:42;29.50;73.70
18575;DHT22;9417;16.484;102.872;2022-10-26T08:42:51;29.50;74.00
18575;DHT22;9417;16.484;102.872;2022-10-26T08:45:01;29.50;74.90
18575;DHT22;9417;16.484;102.872;2022-10-26T08:47:15;29.40;75.20
18575;DHT22;9417;16.484;102.872;2022-10-26T08:49:25;29.50;74.80
18575;DHT22;9417;16.484;102.872;2022-10-26T08:51:34;29.50;75.10
18575;DHT22;9417;16.484;102.872;2022-10-26T08:53:46;29.40;74.90
18575;DHT22;9417;16.484;102.872;2022-10-26T08:55:56;29.40;75.30
18575;DHT22;9417;16.484;102.872;2022-10-26T08:58:06;29.40;75.60
18575;DHT22;9417;16.484;102.872;2022-10-26T09:00:19;29.30;76.50
18575;DHT22;9417;16.484;102.872;2022-10-26T09:02:27;29.30;76.40
18575;DHT22;9417;16.484;102.872;2022-10-26T09:04:34;29.20;77.40
18575;DHT22;9417;16.484;102.872;2022-10-26T09:06:50;29.10;79.20
18575;DHT22;9417;16.484;102.872;2022-10-26T09:09:05;28.60;81.30
18575;DHT22;9417;16.484;102.872;2022-10-26T09:11:12;28.00;83.50
18575;DHT22;9417;16.484;102.872;2022-10-26T09:13:31;27.50;86.80
18575;DHT22;9417;16.484;102.872;2022-10-26T09:15:51;27.10;87.80
18575;DHT22;9417;16.484;102.872;2022-10-26T09:18:11;26.90;89.50
18575;DHT22;9417;16.484;102.872;2022-10-26T09:20:53;26.80;89.30
18575;DHT22;9417;16.484;102.872;2022-10-26T09:23:11;26.80;89.80
18575;DHT22;9417;16.484;102.872;2022-10-26T09:25:22;26.70;89.90
18575;DHT22;9417;16.484;102.872;2022-10-26T09:27:31;26.80;90.30
18575;DHT22;9417;16.484;102.872;2022-10-26T09:29:42;26.80;90.10
18575;DHT22;9417;16.484;102.872;2022-10-26T09:31:50;26.90;90.20
18575;DHT22;9417;16.484;102.872;2022-10-26T09:34:00;26.90;90.40
18575;DHT22;9417;16.484;102.872;2022-10-26T09:36:12;26.90;90.70
18575;DHT22;9417;16.484;102.872;2022-10-26T09:38:27;26.90;90.80
18575;DHT22;9417;16.484;102.872;2022-10-26T09:40:39;26.90;91.10
18575;DHT22;9417;16.484;102.872;2022-10-26T09:42:53;26.90;91.50
18575;DHT22;9417;16.484;102.872;2022-10-26T09:45:05;26.90;91.50
18575;DHT22;9417;16.484;102.872;2022-10-26T09:47:29;27.00;91.40
18575;DHT22;9417;16.484;102.872;2022-10-26T09:49:42;27.00;91.20
18575;DHT22;9417;16.484;102.872;2022-10-26T09:51:51;27.00;91.20
18575;DHT22;9417;16.484;102.872;2022-10-26T09:53:58;27.00;91.40
18575;DHT22;9417;16.484;102.872;2022-10-26T09:56:07;27.00;91.90
18575;DHT22;9417;16.484;102.872;2022-10-26T09:58:22;27.00;91.70
18575;DHT22;9417;16.484;102.872;2022-10-26T10:00:29;27.00;92.00
18575;DHT22;9417;16.484;102.872;2022-10-26T10:02:40;27.00;92.30
18575;DHT22;9417;16.484;102.872;2022-10-26T10:04:50;27.00;94.00
18575;DHT22;9417;16.484;102.872;2022-10-26T10:07:12;27.00;92.90
18575;DHT22;9417;16.484;102.872;2022-10-26T10:09:20;27.00;93.10
18575;DHT22;9417;16.484;102.872;2022-10-26T10:11:37;26.90;93.50
18575;DHT22;9417;16.484;102.872;2022-10-26T10:13:45;26.90;94.60
18575;DHT22;9417;16.484;102.872;2022-10-26T10:15:53;26.80;94.40
18575;DHT22;9417;16.484;102.872;2022-10-26T10:18:00;26.80;94.80
18575;DHT22;9417;16.484;102.872;2022-10-26T10:20:09;26.70;95.10
18575;DHT22;9417;16.484;102.872;2022-10-26T10:22:19;26.70;95.40
18575;DHT22;9417;16.484;102.872;2022-10-26T10:24:28;26.70;96.20
18575;DHT22;9417;16.484;102.872;2022-10-26T10:26:55;26.70;96.20
18575;DHT22;9417;16.484;102.872;2022-10-26T10:29:09;26.70;96.70
18575;DHT22;9417;16.484;102.872;2022-10-26T10:31:25;26.70;96.70
18575;DHT22;9417;16.484;102.872;2022-10-26T10:33:36;26.60;96.50
18575;DHT22;9417;16.484;102.872;2022-10-26T10:35:48;26.50;96.80
18575;DHT22;9417;16.484;102.872;2022-10-26T10:37:56;26.50;97.30
18575;DHT22;9417;16.484;102.872;2022-10-26T10:40:05;26.60;97.40
18575;DHT22;9417;16.484;102.872;2022-10-26T10:42:17;26.60;97.20
18575;DHT22;9417;16.484;102.872;2022-10-26T10:44:27;26.60;97.40
18575;DHT22;9417;16.484;102.872;2022-10-26T10:46:35;26.60;97.50
18575;DHT22;9417;16.484;102.872;2022-10-26T10:48:46;26.50;97.60
18575;DHT22;9417;16.484;102.872;2022-10-26T10:50:56;26.60;97.50
18575;DHT22;9417;16.484;102.872;2022-10-26T10:53:14;26.50;97.60
18575;DHT22;9417;16.484;102.872;2022-10-26T10:55:22;26.50;97.60
18575;DHT22;9417;16.484;102.872;2022-10-26T10:57:34;26.50;97.50
18575;DHT22;9417;16.484;102.872;2022-10-26T10:59:58;26.40;97.60
18575;DHT22;9417;16.484;102.872;2022-10-26T11:05:00;26.40;98.00
18575;DHT22;9417;16.484;102.872;2022-10-26T11:07:12;26.40;98.20
18575;DHT22;9417;16.484;102.872;2022-10-26T11:09:24;26.40;98.10
18575;DHT22;9417;16.484;102.872;2022-10-26T11:11:35;26.40;98.00
18575;DHT22;9417;16.484;102.872;2022-10-26T11:13:54;26.40;98.00
18575;DHT22;9417;16.484;102.872;2022-10-26T11:16:04;26.40;97.70
18575;DHT22;9417;16.484;102.872;2022-10-26T11:18:15;26.40;97.50
18575;DHT22;9417;16.484;102.872;2022-10-26T11:20:25;26.50;97.00
18575;DHT22;9417;16.484;102.872;2022-10-26T11:22:38;26.50;97.00
18575;DHT22;9417;16.484;102.872;2022-10-26T11:24:49;26.40;97.00
18575;DHT22;9417;16.484;102.872;2022-10-26T11:27:02;26.40;97.20
18575;DHT22;9417;16.484;102.872;2022-10-26T11:29:22;26.40;97.40
18575;DHT22;9417;16.484;102.872;2022-10-26T11:31:33;26.40;97.40
18575;DHT22;9417;16.484;102.872;2022-10-26T11:33:44;26.40;97.30
18575;DHT22;9417;16.484;102.872;2022-10-26T11:35:56;26.40;97.00
18575;DHT22;9417;16.484;102.872;2022-10-26T11:38:08;26.50;96.60
18575;DHT22;9417;16.484;102.872;2022-10-26T11:40:27;26.50;97.20
18575;DHT22;9417;16.484;102.872;2022-10-26T11:42:37;26.60;96.60
18575;DHT22;9417;16.484;102.872;2022-10-26T11:44:51;26.60;96.50
18575;DHT22;9417;16.484;102.872;2022-10-26T11:47:02;26.60;96.20
18575;DHT22;9417;16.484;102.872;2022-10-26T11:49:16;26.70;96.00
18575;DHT22;9417;16.484;102.872;2022-10-26T11:51:37;26.70;95.90
18575;DHT22;9417;16.484;102.872;2022-10-26T11:53:47;26.70;96.10
18575;DHT22;9417;16.484;102.872;2022-10-26T11:55:54;26.70;96.10
18575;DHT22;9417;16.484;102.872;2022-10-26T11:58:02;26.70;96.00
18575;DHT22;9417;16.484;102.872;2022-10-26T12:00:15;26.70;96.00
18575;DHT22;9417;16.484;102.872;2022-10-26T12:02:24;26.70;96.10
18575;DHT22;9417;16.484;102.872;2022-10-26T12:04:34;26.70;96.20
18575;DHT22;9417;16.484;102.872;2022-10-26T12:06:41;26.70;96.30
18575;DHT22;9417;16.484;102.872;2022-10-26T12:08:54;26.60;96.60
18575;DHT22;9417;16.484;102.872;2022-10-26T12:11:08;26.60;96.80
18575;DHT22;9417;16.484;102.872;2022-10-26T12:13:25;26.60;96.80
18575;DHT22;9417;16.484;102.872;2022-10-26T12:15:38;26.60;97.00
18575;DHT22;9417;16.484;102.872;2022-10-26T12:18:12;26.60;97.30
18575;DHT22;9417;16.484;102.872;2022-10-26T12:20:54;26.50;97.50
18575;DHT22;9417;16.484;102.872;2022-10-26T12:23:06;26.50;97.90
18575;DHT22;9417;16.484;102.872;2022-10-26T12:25:32;26.50;97.80
18575;DHT22;9417;16.484;102.872;2022-10-26T12:27:53;26.50;97.90
18575;DHT22;9417;16.484;102.872;2022-10-26T12:30:23;26.50;98.10
18575;DHT22;9417;16.484;102.872;2022-10-26T12:32:49;26.50;98.50
18575;DHT22;9417;16.484;102.872;2022-10-26T12:35:02;26.60;98.30
18575;DHT22;9417;16.484;102.872;2022-10-26T12:37:23;26.60;98.50
18575;DHT22;9417;16.484;102.872;2022-10-26T12:39:35;26.50;99.30
18575;DHT22;9417;16.484;102.872;2022-10-26T12:41:55;26.50;99.00
18575;DHT22;9417;16.484;102.872;2022-10-26T12:44:30;26.50;99.50
18575;DHT22;9417;16.484;102.872;2022-10-26T12:46:40;26.50;99.70
18575;DHT22;9417;16.484;102.872;2022-10-26T12:48:51;26.50;99.90
18575;DHT22;9417;16.484;102.872;2022-10-26T12:51:25;26.50;99.90
18575;DHT22;9417;16.484;102.872;2022-10-26T12:53:49;26.50;99.90
18575;DHT22;9417;16.484;102.872;2022-10-26T12:56:04;26.50;99.90
18575;DHT22;9417;16.484;102.872;2022-10-26T13:04:36;26.40;99.90
18575;DHT22;9417;16.484;102.872;2022-10-26T13:07:07;26.40;99.90
18575;DHT22;9417;16.484;102.872;2022-10-26T13:09:20;26.40;99.90
18575;DHT22;9417;16.484;102.872;2022-10-26T13:11:30;26.40;99.90
18575;DHT22;9417;16.484;102.872;2022-10-26T13:13:41;26.40;99.90
18575;DHT22;9417;16.484;102.872;2022-10-26T13:15:53;26.40;99.90
18575;DHT22;9417;16.484;102.872;2022-10-26T13:18:06;26.50;99.90
18575;DHT22;9417;16.484;102.872;2022-10-26T13:20:16;26.50;99.90
18575;DHT22;9417;16.484;102.872;2022-10-26T13:22:24;26.50;99.90
18575;DHT22;9417;16.484;102.872;2022-10-26T13:24:31;26.50;99.90
18575;DHT22;9417;16.484;102.872;2022-10-26T13:29:29;26.50;99.90
18575;DHT22;9417;16.484;102.872;2022-10-26T13:31:54;26.50;99.90
18575;DHT22;9417;16.484;102.872;2022-10-26T13:34:04;26.50;99.90
18575;DHT22;9417;16.484;102.872;2022-10-26T13:36:32;26.40;99.90
18575;DHT22;9417;16.484;102.872;2022-10-26T13:38:41;26.40;99.90
18575;DHT22;9417;16.484;102.872;2022-10-26T13:41:03;26.40;99.90
18575;DHT22;9417;16.484;102.872;2022-10-26T13:43:17;26.40;99.90
18575;DHT22;9417;16.484;102.872;2022-10-26T13:45:28;26.40;99.90
18575;DHT22;9417;16.484;102.872;2022-10-26T13:47:41;26.40;99.90
18575;DHT22;9417;16.484;102.872;2022-10-26T13:49:52;26.40;99.60